createdAt,value
2019-05-14T00:01:11.758Z,1.73
2019-05-14T00:06:13.702Z,1.63
2019-05-14T00:11:16.428Z,2.03
2019-05-14T00:16:21.658Z,2.20
2019-05-14T00:21:23.785Z,2.00
2019-05-14T00:26:26.506Z,1.83
2019-05-14T00:31:29.239Z,2.30
2019-05-14T00:36:32.034Z,2.30
2019-05-14T00:41:34.832Z,2.20
2019-05-14T00:46:40.947Z,2.40
2019-05-14T00:51:44.563Z,2.20
2019-05-14T00:56:47.350Z,2.30
2019-05-14T01:01:51.621Z,2.27
2019-05-14T01:06:54.554Z,2.43
2019-05-14T01:11:57.354Z,2.63
2019-05-14T01:17:02.008Z,2.30
2019-05-14T01:22:04.864Z,3.00
2019-05-14T01:27:07.576Z,2.50
2019-05-14T01:32:11.664Z,2.77
2019-05-14T01:37:14.533Z,2.63
2019-05-14T01:42:17.361Z,2.77
2019-05-14T01:47:21.385Z,2.60
2019-05-14T01:52:24.887Z,2.90
2019-05-14T01:57:27.692Z,2.70
2019-05-14T02:02:31.315Z,3.20
2019-05-14T02:07:34.230Z,3.27
2019-05-14T02:12:36.934Z,3.40
2019-05-14T02:17:41.373Z,3.40
2019-05-14T02:22:44.268Z,3.30
2019-05-14T02:27:46.967Z,3.03
2019-05-14T02:32:49.979Z,3.20
2019-05-14T02:37:52.892Z,3.77
2019-05-14T02:42:59.024Z,3.60
2019-05-14T02:48:00.685Z,3.83
2019-05-14T02:53:03.660Z,3.67
2019-05-14T02:58:09.744Z,3.50
2019-05-14T03:03:11.005Z,3.50
2019-05-14T03:08:13.754Z,3.97
2019-05-14T03:13:16.493Z,3.37
2019-05-14T03:18:21.116Z,4.77
2019-05-14T03:23:23.838Z,3.40
2019-05-14T03:28:30.086Z,4.00
2019-05-14T03:33:33.552Z,3.50
2019-05-14T03:38:39.443Z,3.90
2019-05-14T03:43:40.907Z,3.53
2019-05-14T03:48:43.623Z,3.67
2019-05-14T03:53:59.977Z,4.17
2019-05-14T03:58:50.967Z,4.30
2019-05-14T04:03:53.900Z,3.30
2019-05-14T04:09:00.543Z,3.87
2019-05-14T04:14:04.114Z,4.40
2019-05-14T04:19:11.400Z,4.10
2019-05-14T04:24:20.035Z,3.67
2019-05-14T04:29:30.293Z,3.47
2019-05-14T04:34:32.778Z,4.13
2019-05-14T04:39:35.592Z,4.30
2019-05-14T04:44:40.569Z,3.90
2019-05-14T04:49:45.335Z,4.30
2019-05-14T04:54:49.960Z,3.57
2019-05-14T04:59:52.976Z,4.53
2019-05-14T05:04:55.717Z,4.07
2019-05-14T05:09:59.546Z,3.93
2019-05-14T05:15:02.675Z,3.80
2019-05-14T05:20:06.298Z,3.23
2019-05-14T05:25:09.114Z,3.73
2019-05-14T05:30:11.959Z,3.80
2019-05-14T05:35:14.928Z,3.70
2019-05-14T05:40:19.750Z,3.90
2019-05-14T05:45:22.257Z,3.70
2019-05-14T05:50:24.963Z,3.47
2019-05-14T05:55:28.778Z,3.33
2019-05-14T06:00:35.829Z,4.00
2019-05-14T06:05:39.070Z,4.70
2019-05-14T06:10:41.977Z,4.33
2019-05-14T06:15:48.675Z,4.17
2019-05-14T06:20:49.590Z,3.77
2019-05-14T06:25:52.407Z,4.13
2019-05-14T06:30:55.175Z,4.13
2019-05-14T06:35:59.137Z,3.60
2019-05-14T06:41:02.221Z,3.80
2019-05-14T06:46:04.953Z,3.60
2019-05-14T06:51:08.824Z,3.17
2019-05-14T06:56:11.791Z,4.50
2019-05-14T07:01:14.511Z,3.60
2019-05-14T07:06:18.669Z,3.80
2019-05-14T07:11:21.666Z,3.80
2019-05-14T07:16:24.398Z,3.20
2019-05-14T07:21:29.181Z,2.60
2019-05-14T07:26:31.779Z,3.13
2019-05-14T07:31:34.495Z,1.97
2019-05-14T07:36:38.721Z,2.20
2019-05-14T07:41:41.796Z,1.73
2019-05-14T07:46:45.145Z,1.90
2019-05-14T07:51:48.278Z,1.87
2019-05-14T07:56:53.005Z,1.33
2019-05-14T08:01:55.735Z,1.30
2019-05-14T08:06:58.494Z,1.53
2019-05-14T08:12:01.210Z,1.23
2019-05-14T08:17:03.974Z,1.60
2019-05-14T08:22:09.155Z,1.30
2019-05-14T08:27:11.311Z,1.43
2019-05-14T08:32:14.026Z,1.60
2019-05-14T08:37:18.904Z,2.27
2019-05-14T08:42:21.404Z,1.80
2019-05-14T08:47:24.179Z,1.50
2019-05-14T08:52:28.860Z,1.50
2019-05-14T08:57:31.645Z,1.50
2019-05-14T09:02:35.069Z,1.50
2019-05-14T09:07:38.460Z,1.20
2019-05-14T09:12:42.348Z,1.00
2019-05-14T09:17:48.126Z,1.57
2019-05-14T09:22:51.190Z,1.10
2019-05-14T09:27:54.554Z,1.40
2019-05-14T09:32:59.383Z,1.07
2019-05-14T09:38:03.372Z,1.10
2019-05-14T09:43:09.046Z,1.53
2019-05-14T09:48:12.274Z,1.40
2019-05-14T09:53:18.020Z,1.30
2019-05-14T09:58:21.591Z,1.30
2019-05-14T10:03:25.441Z,1.27
2019-05-14T10:08:29.072Z,1.53
2019-05-14T10:13:32.600Z,1.30
2019-05-14T10:18:37.876Z,1.10
2019-05-14T10:23:40.456Z,1.00
2019-05-14T10:28:43.678Z,0.90
2019-05-14T10:33:48.531Z,0.90
2019-05-14T10:38:52.154Z,1.10
2019-05-14T10:43:55.345Z,0.90
2019-05-14T10:49:03.550Z,1.00
2019-05-14T10:54:20.529Z,0.80
2019-05-14T10:59:09.629Z,0.87
2019-05-14T11:04:12.490Z,0.77
2019-05-14T11:09:17.925Z,0.90
2019-05-14T11:14:21.490Z,0.80
2019-05-14T11:19:24.949Z,0.80
2019-05-14T11:24:29.534Z,0.90
2019-05-14T11:29:32.532Z,1.10
2019-05-14T11:34:35.266Z,1.00
2019-05-14T11:39:38.768Z,0.87
2019-05-14T11:44:42.615Z,0.83
2019-05-14T11:49:49.002Z,0.70
2019-05-14T11:54:52.596Z,0.90
2019-05-14T11:59:58.082Z,1.00
2019-05-14T12:05:01.586Z,0.80
2019-05-14T12:10:08.843Z,0.70
2019-05-14T12:15:11.266Z,0.90
2019-05-14T12:20:14.396Z,1.00
2019-05-14T12:25:18.820Z,0.87
2019-05-14T12:30:21.838Z,0.90
2019-05-14T12:35:24.545Z,1.00
2019-05-14T12:40:28.839Z,0.90
2019-05-14T12:45:32.021Z,0.80
2019-05-14T12:50:34.869Z,0.80
2019-05-14T12:55:39.968Z,0.80
2019-05-14T13:00:42.289Z,0.90
2019-05-14T13:05:45.032Z,0.83
2019-05-14T13:10:49.135Z,1.00
2019-05-14T13:15:52.170Z,0.73
2019-05-14T13:20:54.908Z,1.33
2019-05-14T13:25:59.017Z,0.90
2019-05-14T13:31:02.123Z,0.80
2019-05-14T13:36:04.904Z,0.97
2019-05-14T13:41:08.641Z,1.00
2019-05-14T13:46:14.947Z,0.80
2019-05-14T13:51:16.203Z,0.70
2019-05-14T13:56:19.140Z,0.90
2019-05-14T14:01:21.977Z,0.83
2019-05-14T14:06:24.706Z,1.00
2019-05-14T14:11:28.665Z,0.80
2019-05-14T14:16:32.112Z,0.80
2019-05-14T14:21:34.868Z,0.73
2019-05-14T14:26:39.392Z,0.90
2019-05-14T14:31:42.345Z,0.80
2019-05-14T14:36:45.109Z,0.97
2019-05-14T14:41:48.901Z,0.70
2019-05-14T14:46:51.846Z,1.10
2019-05-14T14:51:54.588Z,1.00
2019-05-14T14:57:09.782Z,0.80
2019-05-14T15:02:12.567Z,0.80
2019-05-14T15:07:20.144Z,0.80
2019-05-14T15:12:29.106Z,0.93
2019-05-14T15:17:35.107Z,0.80
2019-05-14T15:22:39.055Z,4.30
2019-05-14T15:27:43.784Z,1.17
2019-05-14T15:32:51.533Z,0.80
2019-05-14T15:37:58.941Z,0.80
2019-05-14T15:43:02.543Z,0.70
2019-05-14T15:48:08.981Z,0.80
2019-05-14T15:53:11.873Z,1.07
2019-05-14T15:58:20.824Z,0.80
2019-05-14T16:03:23.130Z,0.73
2019-05-14T16:08:25.916Z,1.00
2019-05-14T16:13:28.689Z,0.93
2019-05-14T16:18:31.495Z,1.30
2019-05-14T16:23:34.311Z,2.00
2019-05-14T16:28:39.536Z,1.03
2019-05-14T16:33:41.674Z,1.00
2019-05-14T16:38:44.404Z,1.00
2019-05-14T16:43:49.427Z,1.70
2019-05-14T16:48:51.995Z,0.90
2019-05-14T16:53:54.754Z,1.60
2019-05-14T16:58:58.311Z,1.20
2019-05-14T17:04:01.218Z,0.90
2019-05-14T17:09:08.841Z,1.40
2019-05-14T17:14:11.226Z,1.37
2019-05-14T17:19:14.151Z,1.10
2019-05-14T17:24:19.769Z,1.00
2019-05-14T17:29:21.626Z,1.47
2019-05-14T17:34:24.359Z,0.90
2019-05-14T17:39:27.187Z,0.77
2019-05-14T17:44:29.929Z,1.00
2019-05-14T17:49:32.677Z,0.90
2019-05-14T17:54:35.414Z,0.90
2019-05-14T17:59:39.066Z,1.20
2019-05-14T18:04:43.197Z,0.97
2019-05-14T18:09:46.080Z,0.97
2019-05-14T18:14:48.893Z,0.77
2019-05-14T18:19:51.650Z,0.83
2019-05-14T18:24:54.433Z,1.40
2019-05-14T18:29:59.293Z,0.80
2019-05-14T18:35:05.753Z,1.00
2019-05-14T18:40:10.574Z,0.80
2019-05-14T18:45:15.404Z,0.80
2019-05-14T18:50:19.751Z,0.90
2019-05-14T18:55:23.372Z,0.93
2019-05-14T19:00:29.483Z,0.70
2019-05-14T19:05:32.542Z,0.90
2019-05-14T19:10:39.033Z,0.70
2019-05-14T19:15:42.201Z,1.03
2019-05-14T19:20:48.422Z,0.80
2019-05-14T19:25:51.743Z,0.90
2019-05-14T19:30:56.029Z,0.90
2019-05-14T19:35:59.921Z,0.80
2019-05-14T19:41:04.826Z,0.80
2019-05-14T19:46:08.965Z,1.03
2019-05-14T19:51:13.489Z,0.80
2019-05-14T19:56:17.525Z,0.87
2019-05-14T20:01:21.403Z,0.80
2019-05-14T20:06:29.542Z,1.00
2019-05-14T20:11:33.809Z,0.77
2019-05-14T20:16:39.288Z,1.00
2019-05-14T20:21:42.972Z,1.37
2019-05-14T20:26:48.804Z,0.80
2019-05-14T20:31:52.298Z,0.77
2019-05-14T20:36:58.732Z,1.10
2019-05-14T20:42:01.938Z,1.00
2019-05-14T20:47:04.729Z,1.10
2019-05-14T20:52:09.341Z,0.93
2019-05-14T20:57:23.243Z,0.90
2019-05-14T21:02:18.576Z,1.10
2019-05-14T21:07:21.482Z,1.00
2019-05-14T21:12:24.214Z,1.00
2019-05-14T21:17:28.249Z,0.77
2019-05-14T21:22:31.111Z,1.20
2019-05-14T21:27:44.552Z,1.20
2019-05-14T21:32:42.038Z,2.77
2019-05-14T21:37:43.176Z,5.17
2019-05-14T21:42:45.921Z,8.80
2019-05-14T21:47:48.640Z,4.80
2019-05-14T21:52:51.337Z,1.70
2019-05-14T21:57:57.157Z,0.80
2019-05-14T22:02:58.804Z,1.10
2019-05-14T22:08:01.558Z,1.00
2019-05-14T22:13:04.362Z,0.80
2019-05-14T22:18:16.606Z,0.90
2019-05-14T22:23:11.886Z,0.80
2019-05-14T22:28:15.816Z,0.90
2019-05-14T22:33:19.249Z,0.80
2019-05-14T22:38:21.979Z,1.00
2019-05-14T22:43:24.711Z,1.00
2019-05-14T22:48:27.434Z,0.80
2019-05-14T22:53:30.535Z,1.60
2019-05-14T22:58:33.334Z,1.27
2019-05-14T23:03:36.092Z,1.40
2019-05-14T23:08:39.222Z,0.97
2019-05-14T23:13:42.230Z,1.10
2019-05-14T23:18:44.959Z,0.83
2019-05-14T23:23:47.863Z,0.87
2019-05-14T23:28:50.684Z,1.00
2019-05-14T23:33:53.402Z,1.23
2019-05-14T23:38:59.146Z,1.00
2019-05-14T23:44:01.933Z,0.90
2019-05-14T23:49:04.660Z,0.93
2019-05-14T23:54:08.801Z,1.30
2019-05-14T23:59:11.851Z,1.40
